This is the latest recevied weather packets stored in our database for station/object M0HPP-13. If no packets are shown the sender has not sent any weather packets the latest 10 day(s).
| Time | Temp. | Humidity | Pressure | Rain* | Wind** | Luminosity | Snow |
|---|---|---|---|---|---|---|---|
| 1787401086 | 17.78° C | 63% | 1022 hPa | 0 mm | - | 313 W/m² | - |
| 1787400486 | 17.78° C | 66% | 1022 hPa | 0 mm | - | 390 W/m² | - |
| 1787399886 | 16.67° C | 70% | 1022 hPa | 0 mm | - | 452 W/m² | - |
| 1787399286 | 16.67° C | 68% | 1022 hPa | 0 mm | - | 227 W/m² | - |
| 1787398686 | 16.67° C | 67% | 1022 hPa | 0 mm | - | 299 W/m² | - |
| 1787398086 | 16.11° C | 70% | 1022 hPa | 0 mm | - | 253 W/m² | - |
| 1787397486 | 16.11° C | 72% | 1022 hPa | 0 mm | - | 227 W/m² | - |
| 1787396886 | 15.56° C | 70% | 1022.1 hPa | 0 mm | - | 249 W/m² | - |
| 1787396286 | 16.11° C | 65% | 1022.1 hPa | 0 mm | - | 227 W/m² | - |
| 1787395686 | 16.67° C | 69% | 1022.1 hPa | 0 mm | - | 360 W/m² | - |
| 1787395086 | 15.56° C | 72% | 1022 hPa | 0 mm | - | 299 W/m² | - |
| 1787394486 | 15° C | 74% | 1022 hPa | 0 mm | - | 275 W/m² | - |
| 1787393886 | 15.56° C | 72% | 1021.9 hPa | 0 mm | - | 233 W/m² | - |
| 1787393286 | 15.56° C | 71% | 1021.8 hPa | 0 mm | - | 258 W/m² | - |
| 1787392686 | 15.56° C | 72% | 1021.8 hPa | 0 mm | - | 301 W/m² | - |
| 1787392086 | 15° C | 75% | 1021.8 hPa | 0 mm | - | 303 W/m² | - |
| 1787391486 | 15° C | 74% | 1021.8 hPa | 0 mm | - | 249 W/m² | - |
| 1787389686 | 12.78° C | 85% | 1021.8 hPa | 0 mm | - | 258 W/m² | - |
| 1787389086 | 12.22° C | 86% | 1021.8 hPa | 0 mm | - | 186 W/m² | - |
| 1787388486 | 12.78° C | 83% | 1021.8 hPa | 0 mm | - | 130 W/m² | - |
| 1787387886 | 13.33° C | 79% | 1021.6 hPa | 0 mm | - | 119 W/m² | - |
| 1787387286 | 12.78° C | 81% | 1021.6 hPa | 0 mm | - | 139 W/m² | - |
| 1787386686 | 12.78° C | 81% | 1021.5 hPa | 0 mm | - | 123 W/m² | - |
| 1787386086 | 12.78° C | 81% | 1021.5 hPa | 0 mm | - | 145 W/m² | - |
| 1787385486 | 12.22° C | 83% | 1021.5 hPa | 0 mm | - | 159 W/m² | - |
* Rain latest hour (hover to see other rain measurements)
** Current wind speed in m/s (hover to see current wind gust speed)